Terminal Aerodrome Forecast
Issued by NWS

Home | Current Version | Previous Version | Text Only | Print | Product List | Glossary On
Versions: 1 2 3 4 5 6 7 8 9 10 11 12 13
000
FTUS45 KLKN 232320
TAFELY
TAF
KELY 232320Z 2400/2424 VRB06KT P6SM VCSH SCT080 BKN110
     FM240600 18007KT P6SM VCSH SCT050 SCT120
     FM242000 18011KT P6SM VCTS BKN050CB=

USA.gov is the U.S. government's official web portal to all federal, state and local government web resources and services.